Latest Weather Observations for Inverell RS

IDN60801

Issued at 11:32 am EST Saturday 25 April 2015 (issued every 30 minutes, with the page automatically refreshed every 10 minutes)

About weather observations | Map of weather stations | Latest weather observations for NSW | Other Formats
Station Details ID: 056018 Name: INVERELL RESEARCH CENTRE Lat: -29.78 Lon: 151.08 Height: 664.0 m
Data from the previous 72 hours. | See also: Recent months at Inverell RS
Date/Time
EST
Temp
°C
App
Temp
°C
Dew
Point
Rel
Hum
%
Delta-T
°C
Wind Press
QNH
hPa
Press
MSL
hPa
Rain
since 9 am
mm
Dir
 
Spd
km/h
Gust
km/h
Spd
kts
Gust
kts
25/11:30am 22.2 17.5 6.2 35 8.4 NNW 20 30 11 16 1011.5 - 0.0
25/11:00am 20.3 17.7 7.7 44 6.7 N 11 19 6 10 1011.8 - 0.0
25/10:30am 19.9 17.3 7.7 45 6.5 N 11 15 6 8 1012.1 - 0.0
25/10:00am 18.5 16.6 8.9 53 5.2 N 9 15 5 8 1012.3 - 0.0
25/09:30am 17.4 15.4 8.6 56 4.7 N 9 13 5 7 1012.6 - 0.0
25/09:00am 15.9 14.2 8.3 60 4.0 N 7 11 4 6 1012.7 1011.0 0.0
25/08:30am 14.7 14.3 8.4 66 3.3 CALM 0 7 0 4 1012.8 - 0.0
25/08:00am 12.6 12.3 8.5 76 2.1 CALM 0 0 0 0 1012.7 - 0.0
25/07:30am 11.6 10.7 7.8 77 1.9 SE 2 6 1 3 1012.5 - 0.0
25/07:00am 9.6 7.8 7.2 85 1.2 SSE 6 7 3 4 1012.1 - 0.0
25/06:30am 9.1 7.9 6.4 83 1.3 SSE 2 6 1 3 1012.0 - 0.0
25/06:00am 8.8 6.8 6.3 84 1.2 SSE 6 7 3 4 1011.7 1010.0 0.0
25/05:30am 8.3 6.1 6.4 88 0.9 SSE 7 7 4 4 1011.6 - 0.0
25/05:00am 8.8 6.7 6.5 85 1.1 SSE 7 7 4 4 1011.5 - 0.0
25/04:30am 9.1 7.0 6.6 84 1.2 SSE 7 9 4 5 1011.3 - 0.0
25/04:00am 9.3 8.5 6.6 83 1.3 CALM 0 0 0 0 1011.4 - 0.0
25/03:30am 9.6 8.8 6.7 82 1.4 CALM 0 0 0 0 1011.4 - 0.0
25/03:00am 11.1 10.4 6.8 75 2.1 CALM 0 6 0 3 1011.5 1009.8 0.0
25/02:30am 10.9 9.4 6.8 76 2.0 S 4 7 2 4 1011.5 - 0.0
25/02:00am 11.0 9.3 7.4 78 1.8 SSE 6 9 3 5 1011.7 - 0.0
25/01:30am 10.8 9.0 7.8 82 1.5 S 7 11 4 6 1011.9 - 0.0
25/01:00am 11.0 9.4 8.2 83 1.4 SSE 6 9 3 5 1012.1 - 0.0
25/12:30am 11.2 9.6 8.7 84 1.3 SSE 7 9 4 5 1012.1 - 0.0
25/12:00am 11.6 10.2 8.9 83 1.4 SSE 6 7 3 4 1012.1 1010.5 0.0
 
Date/Time
EST
Temp
°C
App
Temp
°C
Dew
Point
Rel
Hum
%
Delta-T
°C
Wind Press
QNH
hPa
Press
MSL
hPa
Rain
since 9 am
mm
Dir
 
Spd
km/h
Gust
km/h
Spd
kts
Gust
kts
24/11:30pm 11.9 10.8 8.6 80 1.7 SE 4 7 2 4 1012.2 - 0.0
24/11:00pm 12.1 11.9 9.0 81 1.6 CALM 0 0 0 0 1012.1 - 0.0
24/10:30pm 13.5 12.0 8.5 72 2.6 WNW 6 9 3 5 1012.0 - 0.0
24/10:00pm 15.7 13.4 5.9 52 4.9 WNW 7 15 4 8 1012.1 - 0.0
24/09:30pm 16.1 13.4 5.7 50 5.2 WNW 9 11 5 6 1012.0 - 0.0
24/09:00pm 15.7 13.1 6.1 53 4.8 WNW 9 11 5 6 1011.9 1010.2 0.0
24/08:30pm 15.8 13.3 6.5 54 4.7 WNW 9 13 5 7 1011.9 - 0.0
24/08:00pm 16.0 14.0 7.3 56 4.5 WNW 7 11 4 6 1011.7 - 0.0
24/07:30pm 16.4 14.2 7.8 56 4.5 WNW 9 13 5 7 1011.6 - 0.0
24/07:00pm 16.5 14.4 8.4 58 4.3 WNW 9 11 5 6 1011.3 - 0.0
24/06:30pm 16.6 14.7 9.1 61 4.0 W 9 11 5 6 1011.1 - 0.0
24/06:00pm 17.0 15.2 9.6 61 4.0 W 9 11 5 6 1010.9 1009.1 0.0
24/05:30pm 18.0 16.6 9.6 58 4.6 W 7 9 4 5 1010.5 - 0.0
24/05:00pm 19.9 17.8 8.2 46 6.3 W 9 13 5 7 1010.3 - 0.0
24/04:30pm 20.8 18.7 8.2 44 6.8 W 9 15 5 8 1010.1 - 0.0
24/04:00pm 21.2 19.0 9.2 46 6.6 WNW 11 17 6 9 1010.0 - 0.0
24/03:30pm 20.9 18.0 8.1 43 6.9 WNW 13 24 7 13 1010.0 - 0.0
24/03:00pm 21.0 18.8 9.2 46 6.5 WNW 11 17 6 9 1010.1 1008.4 0.0
24/02:30pm 21.3 19.5 9.6 47 6.5 WSW 9 15 5 8 1010.3 - 0.0
24/02:00pm 21.9 18.8 9.0 43 7.1 WNW 15 20 8 11 1010.4 - 0.0
24/01:30pm 21.6 19.1 9.8 47 6.6 W 13 22 7 12 1010.6 - 0.0
24/01:00pm 20.2 18.2 10.2 52 5.6 WSW 11 20 6 11 1010.9 - 0.0
24/12:30pm 21.1 18.7 10.2 49 6.1 WNW 13 22 7 12 1011.4 - 0.0
24/12:00pm 19.7 17.3 10.2 54 5.3 W 13 20 7 11 1011.7 1010.0 0.0
24/11:30am 20.9 18.6 10.6 51 5.8 WNW 13 22 7 12 1012.0 - 0.0
24/11:00am 19.9 17.1 10.0 53 5.5 NW 15 30 8 16 1012.5 - 0.0
24/10:30am 20.1 18.4 11.3 57 5.0 W 11 17 6 9 1012.8 - 0.0
24/10:00am 19.1 18.0 12.1 64 4.0 NW 9 15 5 8 1012.8 - 0.0
24/09:30am 17.7 16.8 12.5 71 3.0 N 9 15 5 8 1013.0 - 0.0
24/09:00am 16.6 16.0 12.4 76 2.4 N 7 11 4 6 1013.2 1011.4 0.0
24/08:30am 15.9 15.4 12.6 81 1.9 N 7 11 4 6 1012.9 - 0.0
24/08:00am 15.1 15.8 12.3 83 1.6 CALM 0 6 0 3 1012.7 - 0.0
24/07:30am 12.6 13.1 11.7 94 0.5 CALM 0 9 0 5 1012.3 - 0.0
24/07:00am 12.3 12.7 11.4 94 0.5 CALM 0 0 0 0 1012.2 - 0.0
24/06:30am 12.2 12.6 11.1 93 0.6 CALM 0 0 0 0 1012.1 - 0.0
24/06:00am 12.5 12.9 11.2 92 0.7 CALM 0 0 0 0 1011.9 1010.2 0.0
24/05:30am 12.9 12.2 11.3 90 0.9 SW 6 9 3 5 1011.5 - 0.0
24/05:00am 12.4 12.4 11.1 92 0.7 SW 2 7 1 4 1011.5 - 0.0
24/04:30am 12.5 12.9 11.2 92 0.7 CALM 0 0 0 0 1011.4 - 0.0
24/04:00am 13.0 12.2 11.2 89 1.0 S 6 7 3 4 1011.4 - 0.0
24/03:30am 13.1 13.6 11.5 90 0.9 CALM 0 0 0 0 1011.6 - 0.0
24/03:00am 12.9 13.3 11.3 90 0.9 CALM 0 0 0 0 1011.8 1010.1 0.0
24/02:30am 12.5 12.1 11.2 92 0.7 SSE 4 7 2 4 1012.0 - 0.0
24/02:00am 12.6 13.0 11.1 91 0.8 CALM 0 6 0 3 1012.1 - 0.0
24/01:30am 12.5 11.7 11.2 92 0.7 S 6 9 3 5 1012.2 - 0.0
24/01:00am 12.6 12.3 11.3 92 0.7 ESE 4 9 2 5 1012.5 - 0.0
24/12:30am 13.7 14.2 11.5 86 1.2 CALM 0 0 0 0 1012.7 - 0.0
24/12:00am 13.7 13.5 11.7 88 1.1 S 4 6 2 3 1013.0 1011.3 0.0
 
Date/Time
EST
Temp
°C
App
Temp
°C
Dew
Point
Rel
Hum
%
Delta-T
°C
Wind Press
QNH
hPa
Press
MSL
hPa
Rain
since 9 am
mm
Dir
 
Spd
km/h
Gust
km/h
Spd
kts
Gust
kts
23/11:30pm 13.6 13.0 11.6 88 1.1 SSE 6 7 3 4 1012.9 - 0.0
23/11:00pm 13.2 12.4 11.6 90 0.9 S 7 9 4 5 1013.2 - 0.0
23/10:30pm 13.1 12.8 11.5 90 0.9 S 4 7 2 4 1013.2 - 0.0
23/10:00pm 13.7 13.9 11.7 88 1.1 WNW 2 9 1 5 1013.4 - 0.0
23/09:30pm 14.5 13.9 11.8 84 1.5 NW 6 7 3 4 1013.5 - 0.0
23/09:00pm 15.1 14.2 11.3 78 2.1 SW 7 9 4 5 1013.4 1011.7 0.0
23/08:30pm 15.3 14.0 11.1 76 2.3 SW 9 9 5 5 1013.3 - 0.0
23/08:00pm 16.1 15.1 11.0 72 2.8 WSW 7 11 4 6 1013.3 - 0.0
23/07:30pm 15.9 14.5 10.8 71 2.8 W 9 11 5 6 1013.1 - 0.0
23/07:00pm 16.0 14.5 10.5 70 3.0 W 9 11 5 6 1013.1 - 0.0
23/06:30pm 15.2 14.1 10.6 74 2.5 WSW 7 11 4 6 1012.7 - 0.0
23/06:00pm 16.0 15.1 10.7 71 2.9 WSW 6 9 3 5 1012.2 1010.5 0.0
23/05:30pm 16.4 15.2 10.4 67 3.3 SW 7 9 4 5 1012.0 - 0.0
23/05:00pm 18.1 17.8 10.1 59 4.4 WSW 2 9 1 5 1011.8 - 0.0
23/04:30pm 19.0 17.7 9.9 55 5.0 WSW 7 11 4 6 1011.7 - 0.0
23/04:00pm 18.6 17.5 10.1 57 4.7 WSW 6 9 3 5 1011.6 - 0.0
23/03:30pm 18.4 17.5 10.5 60 4.4 SW 6 11 3 6 1011.6 - 0.0
23/03:00pm 18.5 18.1 11.0 61 4.2 S 4 9 2 5 1011.8 1010.1 0.0
23/02:30pm 18.7 17.6 10.6 59 4.5 W 7 11 4 6 1011.8 - 0.0
23/02:00pm 18.5 17.4 10.6 60 4.4 S 7 11 4 6 1011.8 - 0.0
23/01:30pm 18.9 18.0 10.7 59 4.6 ENE 6 9 3 5 1012.1 - 0.0
23/01:00pm 19.0 18.5 10.8 59 4.6 ESE 4 9 2 5 1012.5 - 0.0
23/12:30pm 18.9 17.8 11.9 64 4.0 E 9 13 5 7 1013.1 - 0.0
23/12:00pm 17.7 16.4 11.1 65 3.7 ENE 9 15 5 8 1013.6 1012.0 0.0
23/11:30am 17.4 16.3 10.5 64 3.8 NNW 7 9 4 5 1013.9 - 0.0
23/11:00am 16.7 15.4 11.1 69 3.1 N 9 15 5 8 1014.4 - 0.0
23/10:30am 16.3 15.4 10.5 68 3.2 N 6 9 3 5 1014.7 - 0.0
23/10:00am 15.9 14.5 11.0 72 2.7 NNE 9 13 5 7 1014.8 - 0.0
23/09:30am 15.4 14.8 11.8 79 2.0 NE 6 11 3 6 1015.1 - 0.0
23/09:00am 14.2 13.3 11.3 83 1.6 ENE 7 9 4 5 1015.1 1013.4 0.0
23/08:30am 13.3 12.4 11.5 89 1.0 N 7 9 4 5 1015.1 - 0.0
23/08:00am 12.3 12.6 11.0 92 0.7 CALM 0 0 0 0 1015.2 - 0.0
23/07:30am 10.4 10.5 10.0 97 0.2 CALM 0 0 0 0 1014.9 - 0.0
23/07:00am 8.6 8.3 8.6 100 0.0 CALM 0 0 0 0 1014.5 - 0.0
23/06:30am 8.6 8.3 8.6 100 0.0 CALM 0 0 0 0 1014.2 - 0.0
23/06:00am 9.6 8.4 9.4 99 0.1 NW 6 7 3 4 1014.1 1012.4 0.0
23/05:30am 9.4 9.2 9.0 97 0.2 CALM 0 0 0 0 1013.8 - 0.0
23/05:00am 9.5 9.4 9.3 99 0.1 CALM 0 0 0 0 1013.7 - 0.0
23/04:30am 9.8 9.7 9.6 99 0.1 CALM 0 0 0 0 1013.4 - 0.0
23/04:00am 10.0 10.0 9.8 99 0.1 CALM 0 0 0 0 1013.3 - 0.0
23/03:30am 10.4 10.4 9.8 96 0.3 CALM 0 0 0 0 1013.3 - 0.0
23/03:00am 10.5 9.4 9.9 96 0.3 SSW 6 7 3 4 1013.3 1011.6 0.0
23/02:30am 10.3 10.3 9.7 96 0.3 CALM 0 0 0 0 1013.5 - 0.0
23/02:00am 11.2 11.4 10.4 95 0.4 CALM 0 0 0 0 1013.6 - 0.0
23/01:30am 11.3 11.6 10.9 97 0.2 CALM 0 0 0 0 1013.8 - 0.0
23/01:00am 11.2 11.4 10.4 95 0.4 CALM 0 0 0 0 1014.3 - 0.0
23/12:30am 10.8 10.9 10.2 96 0.3 CALM 0 0 0 0 1014.6 - 0.0
23/12:00am 11.6 11.8 10.7 94 0.5 CALM 0 0 0 0 1014.8 1013.1 0.0
 
Date/Time
EST
Temp
°C
App
Temp
°C
Dew
Point
Rel
Hum
%
Delta-T
°C
Wind Press
QNH
hPa
Press
MSL
hPa
Rain
since 9 am
mm
Dir
 
Spd
km/h
Gust
km/h
Spd
kts
Gust
kts
22/11:30pm 11.8 12.0 10.5 92 0.7 CALM 0 0 0 0 1014.9 - 0.0
22/11:00pm 12.0 12.3 10.9 93 0.6 CALM 0 0 0 0 1015.1 - 0.0
22/10:30pm 12.3 12.6 11.0 92 0.7 CALM 0 0 0 0 1015.4 - 0.0
22/10:00pm 12.3 12.6 11.0 92 0.7 CALM 0 0 0 0 1015.6 - 0.0
22/09:30pm 12.0 12.3 10.9 93 0.6 CALM 0 0 0 0 1015.8 - 0.0
22/09:00pm 11.4 11.6 10.7 95 0.4 CALM 0 0 0 0 1015.6 1014.0 0.0
22/08:30pm 11.4 11.6 10.7 95 0.4 CALM 0 0 0 0 1015.5 - 0.0
22/08:00pm 11.0 11.2 10.4 96 0.3 CALM 0 0 0 0 1015.2 - 0.0
22/07:30pm 11.5 11.7 10.6 94 0.5 CALM 0 0 0 0 1015.4 - 0.0
22/07:00pm 12.6 11.5 10.7 88 1.0 S 7 11 4 6 1015.3 - 0.0
22/06:30pm 13.7 12.6 10.0 78 2.0 SE 6 9 3 5 1015.2 - 0.0
22/06:00pm 13.9 13.5 9.6 75 2.3 SW 2 7 1 4 1014.8 1013.1 0.0
22/05:30pm 14.1 12.7 9.4 73 2.5 W 7 11 4 6 1014.6 - 0.0
22/05:00pm 14.5 13.0 9.0 69 2.9 W 7 13 4 7 1014.5 - 0.0
22/04:30pm 14.9 13.3 8.6 66 3.3 W 7 9 4 5 1014.3 - 0.0
22/04:00pm 15.2 13.2 8.5 64 3.5 WNW 9 15 5 8 1014.1 - 0.0
22/03:30pm 15.7 13.7 8.5 62 3.8 NNW 9 11 5 6 1013.8 - 0.0
22/03:00pm 15.3 13.3 8.7 64 3.5 W 9 11 5 6 1013.8 1012.2 0.0
22/02:30pm 15.1 12.6 8.2 63 3.6 WNW 11 17 6 9 1014.1 - 0.0
22/02:00pm 15.0 12.9 8.3 64 3.5 WNW 9 13 5 7 1014.2 - 0.0
22/01:30pm 15.1 13.1 8.6 65 3.4 NW 9 15 5 8 1014.4 - 0.0
22/01:00pm 15.3 14.2 8.4 63 3.6 WSW 4 11 2 6 1014.5 - 0.0
22/12:30pm 14.6 12.8 8.0 64 3.4 SW 7 13 4 7 1015.0 - 0.0
22/12:00pm 13.6 11.9 8.4 71 2.7 SW 7 11 4 6 1015.5 1013.8 0.0

Other Formats:

Comma delimited format used in spreadsheet applications
http://www.bom.gov.au/fwo/IDN60801/IDN60801.94541.axf

JavaScript Object Notation format (JSON) in row-major order
http://www.bom.gov.au/fwo/IDN60801/IDN60801.94541.json